sensor_id;sensor_type;location;lat;lon;timestamp;pressure;altitude;pressure_sealevel;temperature;humidity
13705;BME280;6924;52.122;9.952;2023-02-19T00:01:17;100381.78;;;8.05;100.00
13705;BME280;6924;52.122;9.952;2023-02-19T00:03:47;100395.16;;;7.95;100.00
13705;BME280;6924;52.122;9.952;2023-02-19T00:06:14;100400.13;;;8.03;100.00
13705;BME280;6924;52.122;9.952;2023-02-19T00:08:41;100405.69;;;8.08;100.00
13705;BME280;6924;52.122;9.952;2023-02-19T00:11:09;100408.50;;;8.08;100.00
13705;BME280;6924;52.122;9.952;2023-02-19T00:13:39;100409.44;;;8.22;100.00
13705;BME280;6924;52.122;9.952;2023-02-19T00:16:07;100417.84;;;8.03;100.00
13705;BME280;6924;52.122;9.952;2023-02-19T00:18:34;100424.66;;;8.21;100.00
13705;BME280;6924;52.122;9.952;2023-02-19T00:21:01;100405.94;;;8.31;100.00
13705;BME280;6924;52.122;9.952;2023-02-19T00:23:28;100393.81;;;8.30;100.00
13705;BME280;6924;52.122;9.952;2023-02-19T00:25:54;100398.78;;;8.19;100.00
13705;BME280;6924;52.122;9.952;2023-02-19T00:28:21;100393.34;;;8.04;100.00
13705;BME280;6924;52.122;9.952;2023-02-19T00:30:49;100394.72;;;8.06;100.00
13705;BME280;6924;52.122;9.952;2023-02-19T00:33:15;100388.16;;;8.11;100.00
13705;BME280;6924;52.122;9.952;2023-02-19T00:35:42;100371.81;;;8.13;100.00
13705;BME280;6924;52.122;9.952;2023-02-19T00:38:08;100378.59;;;8.12;100.00
13705;BME280;6924;52.122;9.952;2023-02-19T00:40:35;100389.56;;;8.14;100.00
13705;BME280;6924;52.122;9.952;2023-02-19T00:43:01;100386.41;;;8.15;100.00
13705;BME280;6924;52.122;9.952;2023-02-19T00:45:27;100374.84;;;8.17;100.00
13705;BME280;6924;52.122;9.952;2023-02-19T00:47:55;100376.59;;;8.13;100.00
13705;BME280;6924;52.122;9.952;2023-02-19T00:50:21;100372.41;;;8.10;100.00
13705;BME280;6924;52.122;9.952;2023-02-19T00:52:48;100377.44;;;8.13;100.00
13705;BME280;6924;52.122;9.952;2023-02-19T00:55:14;100374.84;;;8.17;100.00
13705;BME280;6924;52.122;9.952;2023-02-19T00:57:41;100349.59;;;8.12;100.00
13705;BME280;6924;52.122;9.952;2023-02-19T01:00:08;100351.88;;;8.10;100.00
13705;BME280;6924;52.122;9.952;2023-02-19T01:02:35;100355.44;;;8.15;100.00
13705;BME280;6924;52.122;9.952;2023-02-19T01:05:03;100338.00;;;8.13;100.00
13705;BME280;6924;52.122;9.952;2023-02-19T01:07:29;100312.97;;;8.12;100.00
13705;BME280;6924;52.122;9.952;2023-02-19T01:09:56;100319.72;;;8.11;100.00
13705;BME280;6924;52.122;9.952;2023-02-19T01:12:22;100311.75;;;7.99;100.00
13705;BME280;6924;52.122;9.952;2023-02-19T01:14:49;100317.38;;;7.99;100.00
13705;BME280;6924;52.122;9.952;2023-02-19T01:17:16;100313.09;;;8.01;100.00
13705;BME280;6924;52.122;9.952;2023-02-19T01:19:42;100324.28;;;8.06;100.00
13705;BME280;6924;52.122;9.952;2023-02-19T01:22:10;100327.34;;;8.10;100.00
13705;BME280;6924;52.122;9.952;2023-02-19T01:24:36;100321.09;;;8.13;100.00
13705;BME280;6924;52.122;9.952;2023-02-19T01:27:03;100318.44;;;8.22;100.00
13705;BME280;6924;52.122;9.952;2023-02-19T01:29:29;100318.38;;;8.27;100.00
13705;BME280;6924;52.122;9.952;2023-02-19T01:31:56;100311.19;;;8.35;100.00
13705;BME280;6924;52.122;9.952;2023-02-19T01:34:22;100308.38;;;8.35;100.00
13705;BME280;6924;52.122;9.952;2023-02-19T01:36:49;100311.44;;;8.38;100.00
13705;BME280;6924;52.122;9.952;2023-02-19T01:39:16;100314.94;;;8.30;100.00
13705;BME280;6924;52.122;9.952;2023-02-19T01:41:43;100311.19;;;8.35;100.00
13705;BME280;6924;52.122;9.952;2023-02-19T01:47:09;100298.72;;;8.41;100.00
13705;BME280;6924;52.122;9.952;2023-02-19T01:49:38;100317.00;;;8.43;100.00
13705;BME280;6924;52.122;9.952;2023-02-19T01:52:16;100309.59;;;8.47;100.00
13705;BME280;6924;52.122;9.952;2023-02-19T01:54:47;100308.53;;;8.43;100.00
13705;BME280;6924;52.122;9.952;2023-02-19T01:57:18;100304.72;;;8.34;100.00
13705;BME280;6924;52.122;9.952;2023-02-19T01:59:46;100312.88;;;8.36;100.00
13705;BME280;6924;52.122;9.952;2023-02-19T02:02:14;100315.47;;;8.32;100.00
13705;BME280;6924;52.122;9.952;2023-02-19T02:04:41;100302.59;;;8.26;100.00
13705;BME280;6924;52.122;9.952;2023-02-19T02:07:07;100312.47;;;8.04;100.00
13705;BME280;6924;52.122;9.952;2023-02-19T02:09:50;100311.66;;;8.04;100.00
13705;BME280;6924;52.122;9.952;2023-02-19T02:12:34;100311.13;;;8.02;100.00
13705;BME280;6924;52.122;9.952;2023-02-19T02:15:01;100306.03;;;8.04;100.00
13705;BME280;6924;52.122;9.952;2023-02-19T02:17:30;100305.47;;;8.02;100.00
13705;BME280;6924;52.122;9.952;2023-02-19T02:20:16;100310.50;;;7.86;100.00
13705;BME280;6924;52.122;9.952;2023-02-19T02:22:54;100303.22;;;7.85;100.00
13705;BME280;6924;52.122;9.952;2023-02-19T02:25:44;100305.94;;;7.90;100.00
13705;BME280;6924;52.122;9.952;2023-02-19T02:28:32;100296.34;;;7.91;100.00
13705;BME280;6924;52.122;9.952;2023-02-19T02:31:06;100289.06;;;7.90;100.00
13705;BME280;6924;52.122;9.952;2023-02-19T02:33:37;100295.66;;;7.80;100.00
13705;BME280;6924;52.122;9.952;2023-02-19T02:36:09;100289.81;;;7.77;100.00
13705;BME280;6924;52.122;9.952;2023-02-19T02:38:41;100291.41;;;7.83;100.00
13705;BME280;6924;52.122;9.952;2023-02-19T02:41:09;100288.66;;;7.78;100.00
13705;BME280;6924;52.122;9.952;2023-02-19T02:43:36;100310.34;;;7.77;100.00
13705;BME280;6924;52.122;9.952;2023-02-19T02:46:04;100303.09;;;7.71;100.00
13705;BME280;6924;52.122;9.952;2023-02-19T02:48:34;100308.34;;;7.78;100.00
13705;BME280;6924;52.122;9.952;2023-02-19T02:51:07;100302.81;;;7.73;100.00
13705;BME280;6924;52.122;9.952;2023-02-19T02:53:40;100297.41;;;7.76;100.00
13705;BME280;6924;52.122;9.952;2023-02-19T02:56:33;100305.78;;;7.81;100.00
13705;BME280;6924;52.122;9.952;2023-02-19T02:59:02;100306.63;;;7.82;100.00
13705;BME280;6924;52.122;9.952;2023-02-19T03:01:32;100305.88;;;7.76;100.00
13705;BME280;6924;52.122;9.952;2023-02-19T03:04:23;100305.63;;;7.73;100.00
13705;BME280;6924;52.122;9.952;2023-02-19T03:06:54;100297.72;;;7.75;100.00
13705;BME280;6924;52.122;9.952;2023-02-19T03:09:25;100306.16;;;7.75;100.00
13705;BME280;6924;52.122;9.952;2023-02-19T03:11:55;100285.84;;;7.78;100.00
13705;BME280;6924;52.122;9.952;2023-02-19T03:14:45;100286.75;;;7.73;100.00
13705;BME280;6924;52.122;9.952;2023-02-19T03:17:35;100280.81;;;7.75;100.00
13705;BME280;6924;52.122;9.952;2023-02-19T03:20:23;100293.75;;;7.76;100.00
13705;BME280;6924;52.122;9.952;2023-02-19T03:22:51;100287.56;;;7.74;100.00
13705;BME280;6924;52.122;9.952;2023-02-19T03:25:19;100292.09;;;7.75;100.00
13705;BME280;6924;52.122;9.952;2023-02-19T03:28:07;100287.53;;;7.79;100.00
13705;BME280;6924;52.122;9.952;2023-02-19T03:30:38;100294.28;;;7.78;100.00
13705;BME280;6924;52.122;9.952;2023-02-19T03:33:08;100295.72;;;7.75;100.00
13705;BME280;6924;52.122;9.952;2023-02-19T03:35:39;100293.44;;;7.77;100.00
13705;BME280;6924;52.122;9.952;2023-02-19T03:38:10;100292.69;;;7.72;100.00
13705;BME280;6924;52.122;9.952;2023-02-19T03:40:50;100285.66;;;7.69;100.00
13705;BME280;6924;52.122;9.952;2023-02-19T03:43:20;100281.94;;;7.74;100.00
13705;BME280;6924;52.122;9.952;2023-02-19T03:45:55;100288.66;;;7.78;100.00
13705;BME280;6924;52.122;9.952;2023-02-19T03:48:32;100296.72;;;7.84;100.00
13705;BME280;6924;52.122;9.952;2023-02-19T03:51:13;100306.69;;;7.77;100.00
13705;BME280;6924;52.122;9.952;2023-02-19T03:53:51;100299.69;;;7.74;100.00
13705;BME280;6924;52.122;9.952;2023-02-19T03:56:24;100305.00;;;7.76;100.00
13705;BME280;6924;52.122;9.952;2023-02-19T03:58:56;100308.97;;;7.75;100.00
13705;BME280;6924;52.122;9.952;2023-02-19T04:01:29;100312.53;;;7.80;100.00
13705;BME280;6924;52.122;9.952;2023-02-19T04:04:03;100308.34;;;7.78;100.00
13705;BME280;6924;52.122;9.952;2023-02-19T04:06:34;100307.53;;;7.77;100.00
13705;BME280;6924;52.122;9.952;2023-02-19T04:09:05;100319.88;;;7.81;100.00
13705;BME280;6924;52.122;9.952;2023-02-19T04:11:34;100317.88;;;7.82;100.00
13705;BME280;6924;52.122;9.952;2023-02-19T04:14:06;100315.59;;;7.84;100.00
13705;BME280;6924;52.122;9.952;2023-02-19T04:16:38;100317.59;;;7.83;100.00
13705;BME280;6924;52.122;9.952;2023-02-19T04:19:10;100315.06;;;7.82;100.00
13705;BME280;6924;52.122;9.952;2023-02-19T04:21:39;100333.13;;;7.81;100.00
13705;BME280;6924;52.122;9.952;2023-02-19T04:24:09;100333.13;;;7.57;100.00
13705;BME280;6924;52.122;9.952;2023-02-19T04:26:39;100357.13;;;7.25;100.00
13705;BME280;6924;52.122;9.952;2023-02-19T04:29:06;100351.59;;;6.91;100.00
13705;BME280;6924;52.122;9.952;2023-02-19T04:31:34;100375.72;;;6.62;100.00
13705;BME280;6924;52.122;9.952;2023-02-19T04:34:00;100384.00;;;6.44;100.00
13705;BME280;6924;52.122;9.952;2023-02-19T04:36:29;100388.88;;;6.28;100.00
13705;BME280;6924;52.122;9.952;2023-02-19T04:38:56;100393.78;;;6.07;100.00
13705;BME280;6924;52.122;9.952;2023-02-19T04:41:22;100422.75;;;5.92;100.00
13705;BME280;6924;52.122;9.952;2023-02-19T04:43:49;100417.19;;;5.76;100.00
13705;BME280;6924;52.122;9.952;2023-02-19T04:46:15;100409.59;;;5.77;100.00
13705;BME280;6924;52.122;9.952;2023-02-19T04:48:42;100417.47;;;5.80;100.00
13705;BME280;6924;52.122;9.952;2023-02-19T04:51:08;100419.97;;;5.82;100.00
13705;BME280;6924;52.122;9.952;2023-02-19T04:53:37;100430.41;;;5.76;100.00
13705;BME280;6924;52.122;9.952;2023-02-19T04:56:05;100432.66;;;5.64;100.00
13705;BME280;6924;52.122;9.952;2023-02-19T04:58:32;100444.47;;;5.55;100.00
13705;BME280;6924;52.122;9.952;2023-02-19T05:00:59;100445.59;;;5.54;100.00
13705;BME280;6924;52.122;9.952;2023-02-19T05:03:25;100445.63;;;5.39;100.00
13705;BME280;6924;52.122;9.952;2023-02-19T05:05:52;100455.16;;;5.43;100.00
13705;BME280;6924;52.122;9.952;2023-02-19T05:08:18;100454.31;;;5.37;100.00
13705;BME280;6924;52.122;9.952;2023-02-19T05:10:46;100458.78;;;5.49;100.00
13705;BME280;6924;52.122;9.952;2023-02-19T05:13:12;100484.63;;;5.30;100.00
13705;BME280;6924;52.122;9.952;2023-02-19T05:15:38;100487.44;;;5.25;100.00
13705;BME280;6924;52.122;9.952;2023-02-19T05:18:05;100486.06;;;5.23;100.00
13705;BME280;6924;52.122;9.952;2023-02-19T05:20:31;100482.13;;;5.34;100.00
13705;BME280;6924;52.122;9.952;2023-02-19T05:22:58;100495.28;;;5.28;100.00
13705;BME280;6924;52.122;9.952;2023-02-19T05:25:24;100506.53;;;5.23;100.00
13705;BME280;6924;52.122;9.952;2023-02-19T05:27:52;100511.84;;;5.20;100.00
13705;BME280;6924;52.122;9.952;2023-02-19T05:30:39;100515.75;;;5.13;100.00
13705;BME280;6924;52.122;9.952;2023-02-19T05:33:05;100525.84;;;5.04;100.00
13705;BME280;6924;52.122;9.952;2023-02-19T05:35:31;100550.81;;;5.01;100.00
13705;BME280;6924;52.122;9.952;2023-02-19T05:37:58;100550.22;;;4.93;100.00
13705;BME280;6924;52.122;9.952;2023-02-19T05:40:24;100545.19;;;4.85;100.00
13705;BME280;6924;52.122;9.952;2023-02-19T05:42:52;100553.03;;;4.88;100.00
13705;BME280;6924;52.122;9.952;2023-02-19T05:45:18;100553.03;;;4.83;100.00
13705;BME280;6924;52.122;9.952;2023-02-19T05:47:45;100553.84;;;4.79;100.00
13705;BME280;6924;52.122;9.952;2023-02-19T05:50:11;100548.78;;;4.65;100.00
13705;BME280;6924;52.122;9.952;2023-02-19T05:52:37;100559.41;;;4.63;100.00
13705;BME280;6924;52.122;9.952;2023-02-19T05:55:04;100561.91;;;4.65;100.00
13705;BME280;6924;52.122;9.952;2023-02-19T05:57:31;100559.16;;;4.80;100.00
13705;BME280;6924;52.122;9.952;2023-02-19T05:59:58;100555.25;;;4.91;100.00
13705;BME280;6924;52.122;9.952;2023-02-19T06:02:25;100565.09;;;4.99;100.00
13705;BME280;6924;52.122;9.952;2023-02-19T06:04:51;100565.09;;;4.94;100.00
13705;BME280;6924;52.122;9.952;2023-02-19T06:07:17;100575.97;;;4.80;100.00
13705;BME280;6924;52.122;9.952;2023-02-19T06:09:44;100582.66;;;4.69;100.00
13705;BME280;6924;52.122;9.952;2023-02-19T06:12:10;100588.59;;;4.83;100.00
13705;BME280;6924;52.122;9.952;2023-02-19T06:14:37;100595.31;;;4.76;100.00
13705;BME280;6924;52.122;9.952;2023-02-19T06:17:04;100600.31;;;4.69;100.00
13705;BME280;6924;52.122;9.952;2023-02-19T06:19:31;100611.84;;;4.73;100.00
13705;BME280;6924;52.122;9.952;2023-02-19T06:21:57;100625.22;;;4.61;100.00
13705;BME280;6924;52.122;9.952;2023-02-19T06:24:23;100629.13;;;4.54;100.00
13705;BME280;6924;52.122;9.952;2023-02-19T06:26:50;100633.53;;;4.40;100.00
13705;BME280;6924;52.122;9.952;2023-02-19T06:29:16;100648.13;;;4.42;100.00
13705;BME280;6924;52.122;9.952;2023-02-19T06:31:43;100651.72;;;4.32;100.00
13705;BME280;6924;52.122;9.952;2023-02-19T06:34:11;100657.34;;;4.38;100.00
13705;BME280;6924;52.122;9.952;2023-02-19T06:36:37;100663.97;;;4.21;100.00
13705;BME280;6924;52.122;9.952;2023-02-19T06:39:04;100677.88;;;4.11;100.00
13705;BME280;6924;52.122;9.952;2023-02-19T06:41:31;100678.44;;;4.08;100.00
13705;BME280;6924;52.122;9.952;2023-02-19T06:43:58;100679.16;;;3.93;100.00
13705;BME280;6924;52.122;9.952;2023-02-19T06:46:24;100695.50;;;4.06;100.00
13705;BME280;6924;52.122;9.952;2023-02-19T06:48:51;100696.53;;;3.95;100.00
13705;BME280;6924;52.122;9.952;2023-02-19T06:51:19;100703.09;;;3.79;100.00
13705;BME280;6924;52.122;9.952;2023-02-19T06:53:48;100706.69;;;3.74;100.00
13705;BME280;6924;52.122;9.952;2023-02-19T06:56:23;100722.16;;;3.82;100.00
13705;BME280;6924;52.122;9.952;2023-02-19T06:58:51;100717.19;;;3.89;100.00
13705;BME280;6924;52.122;9.952;2023-02-19T07:01:17;100723.34;;;3.91;100.00
13705;BME280;6924;52.122;9.952;2023-02-19T07:03:44;100737.47;;;3.74;100.00
13705;BME280;6924;52.122;9.952;2023-02-19T07:06:10;100744.22;;;3.78;100.00
13705;BME280;6924;52.122;9.952;2023-02-19T07:08:38;100746.69;;;3.75;100.00
13705;BME280;6924;52.122;9.952;2023-02-19T07:11:04;100762.22;;;3.60;100.00
13705;BME280;6924;52.122;9.952;2023-02-19T07:13:30;100778.09;;;3.55;100.00
13705;BME280;6924;52.122;9.952;2023-02-19T07:15:58;100792.81;;;3.45;100.00
13705;BME280;6924;52.122;9.952;2023-02-19T07:18:25;100793.28;;;3.15;100.00
13705;BME280;6924;52.122;9.952;2023-02-19T07:20:52;100799.53;;;3.00;100.00
13705;BME280;6924;52.122;9.952;2023-02-19T07:23:18;100812.75;;;3.04;100.00
13705;BME280;6924;52.122;9.952;2023-02-19T07:25:46;100818.78;;;2.96;100.00
13705;BME280;6924;52.122;9.952;2023-02-19T07:28:12;100830.50;;;2.76;100.00
13705;BME280;6924;52.122;9.952;2023-02-19T07:30:40;100836.91;;;2.77;100.00
13705;BME280;6924;52.122;9.952;2023-02-19T07:33:06;100847.56;;;2.80;100.00
13705;BME280;6924;52.122;9.952;2023-02-19T07:35:33;100855.34;;;2.78;100.00
13705;BME280;6924;52.122;9.952;2023-02-19T07:37:59;100865.44;;;2.79;100.00
13705;BME280;6924;52.122;9.952;2023-02-19T07:40:26;100874.91;;;2.95;100.00
13705;BME280;6924;52.122;9.952;2023-02-19T07:42:53;100885.41;;;2.87;100.00
13705;BME280;6924;52.122;9.952;2023-02-19T07:45:20;100897.38;;;2.83;100.00
13705;BME280;6924;52.122;9.952;2023-02-19T07:47:46;100892.78;;;2.77;100.00
13705;BME280;6924;52.122;9.952;2023-02-19T07:50:13;100896.59;;;2.87;100.00
13705;BME280;6924;52.122;9.952;2023-02-19T07:52:40;100905.09;;;2.76;100.00
13705;BME280;6924;52.122;9.952;2023-02-19T07:55:06;100901.59;;;2.85;100.00
13705;BME280;6924;52.122;9.952;2023-02-19T07:57:33;100919.28;;;2.74;100.00
13705;BME280;6924;52.122;9.952;2023-02-19T08:00:01;100923.16;;;2.73;100.00
13705;BME280;6924;52.122;9.952;2023-02-19T08:02:27;100925.88;;;2.68;100.00
13705;BME280;6924;52.122;9.952;2023-02-19T08:05:11;100928.44;;;2.69;100.00
13705;BME280;6924;52.122;9.952;2023-02-19T08:07:38;100935.63;;;2.65;100.00
13705;BME280;6924;52.122;9.952;2023-02-19T08:10:05;100937.06;;;2.68;100.00
13705;BME280;6924;52.122;9.952;2023-02-19T08:12:55;100931.97;;;2.82;100.00
13705;BME280;6924;52.122;9.952;2023-02-19T08:15:41;100940.09;;;2.83;100.00
13705;BME280;6924;52.122;9.952;2023-02-19T08:18:08;100934.94;;;2.92;100.00
13705;BME280;6924;52.122;9.952;2023-02-19T08:20:35;100951.81;;;2.80;100.00
13705;BME280;6924;52.122;9.952;2023-02-19T08:23:02;100951.28;;;2.83;100.00
13705;BME280;6924;52.122;9.952;2023-02-19T08:25:28;100964.31;;;2.78;100.00
13705;BME280;6924;52.122;9.952;2023-02-19T08:27:55;100968.13;;;2.72;100.00
13705;BME280;6924;52.122;9.952;2023-02-19T08:30:21;100968.75;;;2.74;100.00
13705;BME280;6924;52.122;9.952;2023-02-19T08:32:49;100967.53;;;2.86;100.00
13705;BME280;6924;52.122;9.952;2023-02-19T08:35:16;100976.16;;;3.02;100.00
13705;BME280;6924;52.122;9.952;2023-02-19T08:37:42;100980.50;;;2.93;100.00
13705;BME280;6924;52.122;9.952;2023-02-19T08:40:09;100990.91;;;3.14;100.00
13705;BME280;6924;52.122;9.952;2023-02-19T08:42:36;100993.88;;;3.24;100.00
13705;BME280;6924;52.122;9.952;2023-02-19T08:45:04;100992.34;;;3.34;100.00
13705;BME280;6924;52.122;9.952;2023-02-19T08:47:30;100989.59;;;3.39;100.00
13705;BME280;6924;52.122;9.952;2023-02-19T08:49:58;100998.94;;;3.44;100.00
13705;BME280;6924;52.122;9.952;2023-02-19T08:52:25;101001.19;;;3.64;100.00
13705;BME280;6924;52.122;9.952;2023-02-19T08:54:51;101002.97;;;3.92;100.00
13705;BME280;6924;52.122;9.952;2023-02-19T08:57:17;101004.31;;;4.12;100.00
13705;BME280;6924;52.122;9.952;2023-02-19T08:59:44;100999.81;;;4.33;100.00
13705;BME280;6924;52.122;9.952;2023-02-19T09:02:10;101004.44;;;4.49;100.00
13705;BME280;6924;52.122;9.952;2023-02-19T09:04:37;101012.22;;;4.69;100.00
13705;BME280;6924;52.122;9.952;2023-02-19T09:07:05;101014.72;;;4.66;100.00
13705;BME280;6924;52.122;9.952;2023-02-19T09:09:35;101004.50;;;4.82;100.00
13705;BME280;6924;52.122;9.952;2023-02-19T09:12:03;101008.44;;;4.81;100.00
13705;BME280;6924;52.122;9.952;2023-02-19T09:14:30;101006.38;;;5.03;100.00
13705;BME280;6924;52.122;9.952;2023-02-19T09:16:56;101009.78;;;5.05;100.00
13705;BME280;6924;52.122;9.952;2023-02-19T09:19:23;101020.09;;;5.00;100.00
13705;BME280;6924;52.122;9.952;2023-02-19T09:21:50;101013.09;;;4.70;100.00
13705;BME280;6924;52.122;9.952;2023-02-19T09:24:18;101012.72;;;4.61;100.00
13705;BME280;6924;52.122;9.952;2023-02-19T09:26:47;101012.06;;;4.81;100.00
13705;BME280;6924;52.122;9.952;2023-02-19T09:29:14;101021.00;;;5.05;100.00
13705;BME280;6924;52.122;9.952;2023-02-19T09:31:41;101031.00;;;5.33;100.00
13705;BME280;6924;52.122;9.952;2023-02-19T09:34:08;101040.91;;;5.41;100.00
13705;BME280;6924;52.122;9.952;2023-02-19T09:36:36;101048.09;;;4.94;100.00
13705;BME280;6924;52.122;9.952;2023-02-19T09:39:03;101053.03;;;5.14;100.00
13705;BME280;6924;52.122;9.952;2023-02-19T09:41:34;101051.56;;;5.44;100.00
13705;BME280;6924;52.122;9.952;2023-02-19T09:44:03;101049.59;;;5.39;100.00
13705;BME280;6924;52.122;9.952;2023-02-19T09:46:31;101062.44;;;5.35;100.00
13705;BME280;6924;52.122;9.952;2023-02-19T09:49:02;101060.38;;;5.21;100.00
13705;BME280;6924;52.122;9.952;2023-02-19T09:51:31;101059.16;;;5.44;100.00
13705;BME280;6924;52.122;9.952;2023-02-19T09:54:00;101066.16;;;5.41;100.00
13705;BME280;6924;52.122;9.952;2023-02-19T09:56:29;101075.78;;;5.55;100.00
13705;BME280;6924;52.122;9.952;2023-02-19T09:58:58;101077.47;;;5.51;99.85
13705;BME280;6924;52.122;9.952;2023-02-19T10:01:27;101086.59;;;5.36;100.00
13705;BME280;6924;52.122;9.952;2023-02-19T10:03:56;101094.44;;;5.34;100.00
13705;BME280;6924;52.122;9.952;2023-02-19T10:06:25;101090.84;;;5.44;100.00
13705;BME280;6924;52.122;9.952;2023-02-19T10:08:55;101111.25;;;5.34;100.00
13705;BME280;6924;52.122;9.952;2023-02-19T10:11:25;101117.41;;;5.31;100.00
13705;BME280;6924;52.122;9.952;2023-02-19T10:13:54;101109.63;;;5.38;100.00
13705;BME280;6924;52.122;9.952;2023-02-19T10:16:29;101117.66;;;5.62;100.00
13705;BME280;6924;52.122;9.952;2023-02-19T10:18:56;101130.59;;;5.63;96.90
13705;BME280;6924;52.122;9.952;2023-02-19T10:21:24;101144.16;;;5.76;100.00
13705;BME280;6924;52.122;9.952;2023-02-19T10:23:53;101142.75;;;5.42;99.19
13705;BME280;6924;52.122;9.952;2023-02-19T10:26:21;101145.53;;;5.42;99.43
13705;BME280;6924;52.122;9.952;2023-02-19T10:28:48;101151.16;;;5.42;98.01
13705;BME280;6924;52.122;9.952;2023-02-19T10:31:16;101150.56;;;5.67;100.00
13705;BME280;6924;52.122;9.952;2023-02-19T10:33:52;101155.44;;;5.82;100.00
13705;BME280;6924;52.122;9.952;2023-02-19T10:36:24;101176.88;;;5.61;96.72
13705;BME280;6924;52.122;9.952;2023-02-19T10:38:52;101182.63;;;5.49;97.67
13705;BME280;6924;52.122;9.952;2023-02-19T10:41:20;101176.16;;;5.43;99.34
13705;BME280;6924;52.122;9.952;2023-02-19T10:43:52;101180.00;;;5.37;98.04
13705;BME280;6924;52.122;9.952;2023-02-19T10:46:21;101189.47;;;5.31;99.69
13705;BME280;6924;52.122;9.952;2023-02-19T10:48:52;101189.19;;;5.27;95.75
13705;BME280;6924;52.122;9.952;2023-02-19T10:51:19;101199.94;;;5.13;95.08
13705;BME280;6924;52.122;9.952;2023-02-19T10:53:48;101195.22;;;5.14;95.70
13705;BME280;6924;52.122;9.952;2023-02-19T10:56:22;101198.47;;;5.33;95.71
13705;BME280;6924;52.122;9.952;2023-02-19T10:58:50;101201.28;;;5.33;95.46
13705;BME280;6924;52.122;9.952;2023-02-19T11:01:18;101196.84;;;5.37;96.67
13705;BME280;6924;52.122;9.952;2023-02-19T11:03:45;101199.22;;;5.50;99.16
13705;BME280;6924;52.122;9.952;2023-02-19T11:06:15;101185.94;;;5.73;100.00
13705;BME280;6924;52.122;9.952;2023-02-19T11:08:52;101198.50;;;5.60;93.31
13705;BME280;6924;52.122;9.952;2023-02-19T11:11:29;101198.13;;;5.51;91.63
13705;BME280;6924;52.122;9.952;2023-02-19T11:13:58;101186.72;;;5.63;90.50
13705;BME280;6924;52.122;9.952;2023-02-19T11:16:37;101194.22;;;5.85;91.20
13705;BME280;6924;52.122;9.952;2023-02-19T11:19:22;101199.94;;;5.95;90.15
13705;BME280;6924;52.122;9.952;2023-02-19T11:21:51;101193.13;;;5.91;89.58
13705;BME280;6924;52.122;9.952;2023-02-19T11:24:24;101193.22;;;5.96;90.67
13705;BME280;6924;52.122;9.952;2023-02-19T11:26:52;101200.00;;;6.05;93.67
13705;BME280;6924;52.122;9.952;2023-02-19T11:29:20;101188.31;;;6.18;92.26
13705;BME280;6924;52.122;9.952;2023-02-19T11:31:48;101188.09;;;6.30;91.74
13705;BME280;6924;52.122;9.952;2023-02-19T11:34:25;101198.25;;;6.36;91.23
13705;BME280;6924;52.122;9.952;2023-02-19T11:37:09;101214.16;;;5.88;88.97
13705;BME280;6924;52.122;9.952;2023-02-19T11:39:38;101221.84;;;5.71;89.73
13705;BME280;6924;52.122;9.952;2023-02-19T11:45:16;101212.09;;;5.73;88.36
13705;BME280;6924;52.122;9.952;2023-02-19T11:48:11;101204.28;;;5.80;89.20
13705;BME280;6924;52.122;9.952;2023-02-19T11:50:50;101205.53;;;5.95;87.20
13705;BME280;6924;52.122;9.952;2023-02-19T11:53:24;101214.84;;;5.95;88.47
13705;BME280;6924;52.122;9.952;2023-02-19T11:55:57;101211.66;;;5.92;87.65
13705;BME280;6924;52.122;9.952;2023-02-19T11:58:50;101215.41;;;5.97;87.26
13705;BME280;6924;52.122;9.952;2023-02-19T12:01:22;101209.28;;;5.73;86.68
13705;BME280;6924;52.122;9.952;2023-02-19T12:04:07;101219.34;;;5.69;87.14
13705;BME280;6924;52.122;9.952;2023-02-19T12:06:52;101212.44;;;5.55;87.74
13705;BME280;6924;52.122;9.952;2023-02-19T12:09:42;101218.25;;;5.43;87.64
13705;BME280;6924;52.122;9.952;2023-02-19T12:12:24;101218.69;;;5.35;87.73
13705;BME280;6924;52.122;9.952;2023-02-19T12:15:06;101220.34;;;5.31;88.34
13705;BME280;6924;52.122;9.952;2023-02-19T12:17:46;101215.66;;;5.36;88.92
13705;BME280;6924;52.122;9.952;2023-02-19T12:20:25;101211.28;;;5.51;87.75
13705;BME280;6924;52.122;9.952;2023-02-19T12:22:59;101211.63;;;5.87;89.96
13705;BME280;6924;52.122;9.952;2023-02-19T12:25:40;101215.53;;;5.86;84.67
13705;BME280;6924;52.122;9.952;2023-02-19T12:28:20;101224.94;;;5.96;87.39
13705;BME280;6924;52.122;9.952;2023-02-19T12:31:10;101208.72;;;5.76;85.40
13705;BME280;6924;52.122;9.952;2023-02-19T12:34:01;101218.34;;;5.86;86.99
13705;BME280;6924;52.122;9.952;2023-02-19T12:36:36;101224.50;;;5.83;87.43
13705;BME280;6924;52.122;9.952;2023-02-19T12:39:14;101220.50;;;5.73;86.65
13705;BME280;6924;52.122;9.952;2023-02-19T12:41:51;101226.63;;;5.70;87.72
13705;BME280;6924;52.122;9.952;2023-02-19T12:44:22;101233.47;;;5.52;85.46
13705;BME280;6924;52.122;9.952;2023-02-19T12:46:56;101237.44;;;5.29;85.45
13705;BME280;6924;52.122;9.952;2023-02-19T12:49:27;101239.72;;;5.32;85.30
13705;BME280;6924;52.122;9.952;2023-02-19T12:51:57;101244.78;;;5.35;84.63
13705;BME280;6924;52.122;9.952;2023-02-19T12:54:27;101244.91;;;5.46;81.85
13705;BME280;6924;52.122;9.952;2023-02-19T12:57:00;101247.47;;;5.47;79.87
13705;BME280;6924;52.122;9.952;2023-02-19T12:59:31;101251.22;;;5.58;81.90
13705;BME280;6924;52.122;9.952;2023-02-19T13:02:03;101265.84;;;5.60;82.97
13705;BME280;6924;52.122;9.952;2023-02-19T13:04:40;101266.91;;;5.54;80.85
13705;BME280;6924;52.122;9.952;2023-02-19T13:07:12;101256.84;;;5.58;82.15
13705;BME280;6924;52.122;9.952;2023-02-19T13:09:43;101252.91;;;5.59;81.64
13705;BME280;6924;52.122;9.952;2023-02-19T13:12:18;101256.03;;;5.63;80.54
13705;BME280;6924;52.122;9.952;2023-02-19T13:14:48;101248.25;;;5.70;80.21
13705;BME280;6924;52.122;9.952;2023-02-19T13:17:21;101254.50;;;5.77;80.93
13705;BME280;6924;52.122;9.952;2023-02-19T13:19:54;101258.25;;;5.88;81.77
13705;BME280;6924;52.122;9.952;2023-02-19T13:22:28;101260.72;;;5.84;79.81
13705;BME280;6924;52.122;9.952;2023-02-19T13:25:15;101267.22;;;5.85;79.98